Date,TemperatureHighF,TemperatureAvgF,TemperatureLowF,DewpointHighF,DewpointAvgF,DewpointLowF,HumidityHigh,HumidityAvg,HumidityLow,PressureMaxIn,PressureMinIn,WindSpeedMaxMPH,WindSpeedAvgMPH,GustSpeedMaxMPH,PrecipitationSumIn
2013-1-1,18,10,1,-100,-100,-100,0,0,100,0.00,40.00,0,-999,0,0.00
2013-1-2,31,21,10,-100,-100,-100,0,0,100,0.00,40.00,0,-999,0,0.00
2013-1-3,26,21,15,-100,-100,-100,0,0,100,0.00,40.00,0,-999,0,0.00
2013-1-4,29,19,11,-100,-100,-100,0,0,100,0.00,40.00,0,-999,0,0.00
2013-1-5,30,18,9,-100,-100,-100,0,0,100,0.00,40.00,0,-999,0,0.00
2013-1-6,35,22,12,-100,-100,-100,0,0,100,0.00,40.00,0,-999,0,0.00
2013-1-7,34,30,20,-100,-100,-100,0,0,100,0.00,40.00,0,-999,0,0.00
2013-1-8,33,23,13,-100,-100,-100,0,0,100,0.00,40.00,0,-999,0,0.00
2013-1-9,37,29,18,-100,-100,-100,0,0,100,0.00,40.00,0,-999,0,0.00
2013-1-10,36,33,27,-100,-100,-100,0,0,100,0.00,40.00,0,-999,0,0.00
2013-1-11,40,34,22,-100,-100,-100,0,0,100,0.00,40.00,0,-999,0,0.00
2013-1-12,21,16,9,-100,-100,-100,0,0,100,0.00,40.00,0,-999,0,0.00
2013-1-13,18,10,6,-100,-100,-100,0,0,100,0.00,40.00,0,-999,0,0.00
2013-1-14,25,15,7,-100,-100,-100,0,0,100,0.00,40.00,0,-999,0,0.00
2013-1-15,30,20,9,-100,-100,-100,0,0,100,0.00,40.00,0,-999,0,0.00
2013-1-16,47,32,21,-100,-100,-100,0,0,100,0.00,40.00,0,-999,0,0.00
2013-1-17,39,31,27,-100,-100,-100,0,0,100,0.00,40.00,0,-999,0,0.00
2013-1-18,45,37,31,-100,-100,-100,0,0,100,0.00,40.00,0,-999,0,0.00
2013-1-19,48,35,21,-100,-100,-100,0,0,100,0.00,40.00,0,-999,0,0.00
2013-1-20,19,16,13,-100,-100,-100,0,0,100,0.00,40.00,0,-999,0,0.00
2013-1-21,14,10,4,-100,-100,-100,0,0,100,0.00,40.00,0,-999,0,0.00
2013-1-22,21,14,9,-100,-100,-100,0,0,100,0.00,40.00,0,-999,0,0.00
2013-1-23,24,16,10,-100,-100,-100,0,0,100,0.00,40.00,0,-999,0,0.00
2013-1-24,14,10,1,-100,-100,-100,0,0,100,0.00,40.00,0,-999,0,0.00
2013-1-25,45,28,14,-100,-100,-100,0,0,100,0.00,40.00,0,-999,0,0.00
2013-1-26,47,31,18,-100,-100,-100,0,0,100,0.00,40.00,0,-999,0,0.00
2013-1-27,42,35,32,-100,-100,-100,0,0,100,0.00,40.00,0,-999,0,0.00
2013-1-28,36,34,32,-100,-100,-100,0,0,100,0.00,40.00,0,-999,0,0.00
2013-1-29,33,31,29,-100,-100,-100,0,0,100,0.00,40.00,0,-999,0,0.00
2013-1-30,28,20,14,-100,-100,-100,0,0,100,0.00,40.00,0,-999,0,0.00
2013-1-31,8,5,3,-100,-100,-100,0,0,100,0.00,40.00,0,-999,0,0.00
2013-2-1,28,15,1,-100,-100,-100,0,0,100,0.00,40.00,0,-999,0,0.00
2013-2-2,40,30,22,-100,-100,-100,0,0,100,0.00,40.00,0,-999,0,0.00
2013-2-3,42,33,21,-100,-100,-100,0,0,100,0.00,40.00,0,-999,0,0.00
2013-2-4,39,25,20,-100,-100,-100,0,0,100,0.00,40.00,0,-999,0,0.00
2013-2-5,47,34,25,-100,-100,-100,0,0,100,0.00,40.00,0,-999,0,0.00
2013-2-6,51,39,29,-100,-100,-100,0,0,100,0.00,40.00,0,-999,0,0.00
2013-2-7,35,30,27,-100,-100,-100,0,0,100,0.00,40.00,0,-999,0,0.00
2013-2-8,29,27,25,-100,-100,-100,0,0,100,0.00,40.00,0,-999,0,0.00
2013-2-9,47,34,25,-100,-100,-100,0,0,100,0.00,40.00,0,-999,0,0.00
2013-2-10,37,33,27,-100,-100,-100,0,0,100,0.00,40.00,0,-999,0,0.00
2013-2-11,31,27,21,-100,-100,-100,0,0,100,0.00,40.00,0,-999,0,0.00
2013-2-12,46,29,21,-100,-100,-100,0,0,100,0.00,40.00,0,-999,0,0.00
2013-2-13,50,36,25,-100,-100,-100,0,0,100,0.00,40.00,0,-999,0,0.00
2013-2-14,39,33,18,-100,-100,-100,0,0,100,0.00,40.00,0,-999,0,0.00
2013-2-15,25,18,10,-100,-100,-100,0,0,100,0.00,40.00,0,-999,0,0.00
2013-2-16,34,24,12,-100,-100,-100,0,0,100,0.00,40.00,0,-999,0,0.00
2013-2-17,49,34,21,-100,-100,-100,0,0,100,0.00,40.00,0,-999,0,0.00
2013-2-18,38,30,20,-100,-100,-100,0,0,100,0.00,40.00,0,-999,0,0.00
2013-2-19,21,14,7,-100,-100,-100,0,0,100,0.00,40.00,0,-999,0,0.00
2013-2-20,22,12,3,-100,-100,-100,0,0,100,0.00,40.00,0,-999,0,0.00
2013-2-21,22,19,18,-100,-100,-100,0,0,100,0.00,40.00,0,-999,0,0.00
2013-2-22,18,15,5,-100,-100,-100,0,0,100,0.00,40.00,0,-999,0,0.00
2013-2-23,32,17,-1,-100,-100,-100,0,0,100,0.00,40.00,0,-999,0,0.00
2013-2-24,32,24,14,-100,-100,-100,0,0,100,0.00,40.00,0,-999,0,0.00
2013-2-25,29,25,19,-100,-100,-100,0,0,100,0.00,40.00,0,-999,0,0.00
2013-2-26,26,22,19,-100,-100,-100,0,0,100,0.00,40.00,0,-999,0,0.00
2013-2-27,34,26,21,-100,-100,-100,0,0,100,0.00,40.00,0,-999,0,0.00
2013-2-28,27,25,23,-100,-100,-100,0,0,100,0.00,40.00,0,-999,0,0.00
2013-3-1,27,23,20,-100,-100,-100,0,0,100,0.00,40.00,0,-999,0,0.00
2013-3-2,36,24,11,-100,-100,-100,0,0,100,0.00,40.00,0,-999,0,0.00
2013-3-3,39,31,25,-100,-100,-100,0,0,100,0.00,40.00,0,-999,0,0.00
2013-3-4,35,30,25,-100,-100,-100,0,0,100,0.00,40.00,0,-999,0,0.00
2013-3-5,29,24,18,-100,-100,-100,0,0,100,0.00,40.00,0,-999,0,0.00
2013-3-6,38,25,17,-100,-100,-100,0,0,100,0.00,40.00,0,-999,0,0.00
2013-3-7,49,33,22,-100,-100,-100,0,0,100,0.00,40.00,0,-999,0,0.00
2013-3-8,51,37,24,-100,-100,-100,0,0,100,0.00,40.00,0,-999,0,0.00
2013-3-9,54,41,31,-100,-100,-100,0,0,100,0.00,40.00,0,-999,0,0.00
2013-3-10,30,23,19,-100,-100,-100,0,0,100,0.00,40.00,0,-999,0,0.00
2013-3-11,30,21,15,-100,-100,-100,0,0,100,0.00,40.00,0,-999,0,0.00
2013-3-12,29,26,17,-100,-100,-100,0,0,100,0.00,40.00,0,-999,0,0.00
2013-3-13,31,23,14,-100,-100,-100,0,0,100,0.00,40.00,0,-999,0,0.00
2013-3-14,57,40,29,-100,-100,-100,0,0,100,0.00,40.00,0,-999,0,0.00
2013-3-15,54,44,32,-100,-100,-100,0,0,100,0.00,40.00,0,-999,0,0.00
2013-3-16,36,28,22,-100,-100,-100,0,0,100,0.00,40.00,0,-999,0,0.00
2013-3-17,42,31,22,-100,-100,-100,0,0,100,0.00,40.00,0,-999,0,0.00
2013-3-18,37,30,25,-100,-100,-100,0,0,100,0.00,40.00,0,-999,0,0.00
2013-3-19,44,31,21,-100,-100,-100,0,0,100,0.00,40.00,0,-999,0,0.00
2013-3-20,32,20,14,-100,-100,-100,0,0,100,0.00,40.00,0,-999,0,0.00
2013-3-21,28,23,20,-100,-100,-100,0,0,100,0.00,40.00,0,-999,0,0.00
2013-3-22,30,28,23,-100,-100,-100,0,0,100,0.00,40.00,0,-999,0,0.00
2013-3-23,31,28,27,-100,-100,-100,0,0,100,0.00,40.00,0,-999,0,0.00
2013-3-24,26,23,20,-100,-100,-100,0,0,100,0.00,40.00,0,-999,0,0.00
2013-3-25,26,23,21,-100,-100,-100,0,0,100,0.00,40.00,0,-999,0,0.00
2013-3-26,40,26,14,-100,-100,-100,0,0,100,0.00,40.00,0,-999,0,0.00
2013-3-27,47,35,25,-100,-100,-100,0,0,100,0.00,40.00,0,-999,0,0.00
2013-3-28,55,42,27,-100,-100,-100,0,0,100,0.00,40.00,0,-999,0,0.00
2013-3-29,65,47,30,-100,-100,-100,0,0,100,0.00,40.00,0,-999,0,0.00
2013-3-30,60,52,47,-100,-100,-100,0,0,100,0.00,40.00,0,-999,0,0.00
2013-3-31,53,43,33,-100,-100,-100,0,0,100,0.00,40.00,0,-999,0,0.00
2013-4-1,37,28,19,-100,-100,-100,0,0,100,0.00,40.00,0,-999,0,0.00
2013-4-2,51,36,21,-100,-100,-100,0,0,100,0.00,40.00,0,-999,0,0.00
2013-4-3,54,41,29,-100,-100,-100,0,0,100,0.00,40.00,0,-999,0,0.00
2013-4-4,58,44,31,-100,-100,-100,0,0,100,0.00,40.00,0,-999,0,0.00
2013-4-5,65,46,28,-100,-100,-100,0,0,100,0.00,40.00,0,-999,0,0.00
2013-4-6,68,55,47,-100,-100,-100,0,0,100,0.00,40.00,0,-999,0,0.00
2013-4-7,66,49,34,-100,-100,-100,0,0,100,0.00,40.00,0,-999,0,0.00
2013-4-8,69,55,40,-100,-100,-100,0,0,100,0.00,40.00,0,-999,0,0.00
2013-4-9,55,47,46,-100,-100,-100,0,0,100,0.00,40.00,0,-999,0,0.00
2013-4-10,46,41,29,-100,-100,-100,0,0,100,0.00,40.00,0,-999,0,0.00
2013-4-11,33,30,27,-100,-100,-100,0,0,100,0.00,40.00,0,-999,0,0.00
2013-4-12,37,32,29,-100,-100,-100,0,0,100,0.00,40.00,0,-999,0,0.00
2013-4-13,52,40,29,-100,-100,-100,0,0,100,0.00,40.00,0,-999,0,0.00
2013-4-14,54,47,39,-100,-100,-100,0,0,100,0.00,40.00,0,-999,0,0.00
2013-4-15,44,37,31,-100,-100,-100,0,0,100,0.00,40.00,0,-999,0,0.00
2013-4-16,47,39,32,-100,-100,-100,0,0,100,0.00,40.00,0,-999,0,0.00
2013-4-17,41,36,32,-100,-100,-100,0,0,100,0.00,40.00,0,-999,0,0.00
2013-4-18,32,29,26,-100,-100,-100,0,0,100,0.00,40.00,0,-999,0,0.00
2013-4-19,40,32,24,-100,-100,-100,0,0,100,0.00,40.00,0,-999,0,0.00
2013-4-20,42,34,25,-100,-100,-100,0,0,100,0.00,40.00,0,-999,0,0.00
2013-4-21,62,49,36,-100,-100,-100,0,0,100,0.00,40.00,0,-999,0,0.00
2013-4-22,42,36,29,-100,-100,-100,0,0,100,0.00,40.00,0,-999,0,0.00
2013-4-23,32,29,27,-100,-100,-100,0,0,100,0.00,40.00,0,-999,0,0.00
2013-4-24,55,37,24,-100,-100,-100,0,0,100,0.00,40.00,0,-999,0,0.00
2013-4-25,67,47,29,-100,-100,-100,0,0,100,0.00,40.00,0,-999,0,0.00
2013-4-26,71,58,51,-100,-100,-100,0,0,100,0.00,40.00,0,-999,0,0.00
2013-4-27,72,55,46,-100,-100,-100,0,0,100,0.00,40.00,0,-999,0,0.00
2013-4-28,80,64,44,-100,-100,-100,0,0,100,0.00,40.00,0,-999,0,0.00
2013-4-29,80,61,49,-100,-100,-100,0,0,100,0.00,40.00,0,-999,0,0.00
2013-4-30,69,64,55,-100,-100,-100,0,0,100,0.00,40.00,0,-999,0,0.00
2013-5-1,65,37,30,-100,-100,-100,0,0,100,0.00,40.00,0,-999,0,0.00
2013-5-2,47,37,30,-100,-100,-100,0,0,100,0.00,40.00,0,-999,0,0.00
2013-5-3,47,36,28,-100,-100,-100,0,0,100,0.00,40.00,0,-999,0,0.00
2013-5-4,40,37,34,-100,-100,-100,0,0,100,0.00,40.00,0,-999,0,0.00
2013-5-5,51,43,38,-100,-100,-100,0,0,100,0.00,40.00,0,-999,0,0.00
2013-5-6,66,49,34,-100,-100,-100,0,0,100,0.00,40.00,0,-999,0,0.00
2013-5-7,71,56,43,-100,-100,-100,0,0,100,0.00,40.00,0,-999,0,0.00
2013-5-8,60,56,53,-100,-100,-100,0,0,100,0.00,40.00,0,-999,0,0.00
2013-5-9,56,53,49,-100,-100,-100,0,0,100,0.00,40.00,0,-999,0,0.00
2013-5-10,65,54,45,-100,-100,-100,0,0,100,0.00,40.00,0,-999,0,0.00
2013-5-11,56,50,40,-100,-100,-100,0,0,100,0.00,40.00,0,-999,0,0.00
2013-5-12,65,51,31,-100,-100,-100,0,0,100,0.00,40.00,0,-999,0,0.00
2013-5-13,79,65,50,-100,-100,-100,0,0,100,0.00,40.00,0,-999,0,0.00
2013-5-14,94,82,74,-100,-100,-100,0,0,100,0.00,40.00,0,-999,0,0.00
2013-5-15,83,67,55,-100,-100,-100,0,0,100,0.00,40.00,0,-999,0,0.00
2013-5-16,81,67,57,-100,-100,-100,0,0,100,0.00,40.00,0,-999,0,0.00
2013-5-17,85,73,62,-100,-100,-100,0,0,100,0.00,40.00,0,-999,0,0.00
2013-5-18,81,71,59,-100,-100,-100,0,0,100,0.00,40.00,0,-999,0,0.00
2013-5-19,76,64,54,-100,-100,-100,0,0,100,0.00,40.00,0,-999,0,0.00
2013-5-20,69,61,54,-100,-100,-100,0,0,100,0.00,40.00,0,-999,0,0.00
2013-5-21,62,54,51,-100,-100,-100,0,0,100,0.00,40.00,0,-999,0,0.00
2013-5-22,54,50,47,-100,-100,-100,0,0,100,0.00,40.00,0,-999,0,0.00
2013-5-23,69,57,48,-100,-100,-100,0,0,100,0.00,40.00,0,-999,0,0.00
2013-5-24,70,59,47,-100,-100,-100,0,0,100,0.00,40.00,0,-999,0,0.00
2013-5-25,75,64,54,-100,-100,-100,0,0,100,0.00,40.00,0,-999,0,0.00
2013-5-26,73,64,56,-100,-100,-100,0,0,100,0.00,40.00,0,-999,0,0.00
2013-5-27,73,65,57,-100,-100,-100,0,0,100,0.00,40.00,0,-999,0,0.00
2013-5-28,70,65,58,-100,-100,-100,0,0,100,0.00,40.00,0,-999,0,0.00
2013-5-29,73,66,62,-100,-100,-100,0,0,100,0.00,40.00,0,-999,0,0.00
2013-5-30,76,65,58,-100,-100,-100,0,0,100,0.00,40.00,0,-999,0,0.00
2013-5-31,74,64,56,-100,-100,-100,0,0,100,0.00,40.00,0,-999,0,0.00
2013-6-1,58,54,51,-100,-100,-100,0,0,100,0.00,40.00,0,-999,0,0.00
2013-6-2,69,56,43,-100,-100,-100,0,0,100,0.00,40.00,0,-999,0,0.00
2013-6-3,73,62,49,-100,-100,-100,0,0,100,0.00,40.00,0,-999,0,0.00
2013-6-4,72,64,58,-100,-100,-100,0,0,100,0.00,40.00,0,-999,0,0.00
2013-6-5,67,60,54,-100,-100,-100,0,0,100,0.00,40.00,0,-999,0,0.00
2013-6-6,66,60,53,-100,-100,-100,0,0,100,0.00,40.00,0,-999,0,0.00
2013-6-7,74,60,47,-100,-100,-100,0,0,100,0.00,40.00,0,-999,0,0.00
2013-6-8,63,59,55,-100,-100,-100,0,0,100,0.00,40.00,0,-999,0,0.00
2013-6-9,65,61,58,-100,-100,-100,0,0,100,0.00,40.00,0,-999,0,0.00
2013-6-10,80,66,50,-100,-100,-100,0,0,100,0.00,40.00,0,-999,0,0.00
2013-6-11,87,74,63,-100,-100,-100,0,0,100,0.00,40.00,0,-999,0,0.00
2013-6-12,81,73,61,-100,-100,-100,0,0,100,0.00,40.00,0,-999,0,0.00
2013-6-13,73,64,54,-100,-100,-100,0,0,100,0.00,40.00,0,-999,0,0.00
2013-6-14,87,71,60,-100,-100,-100,0,0,100,0.00,40.00,0,-999,0,0.00
2013-6-15,80,71,62,-100,-100,-100,0,0,100,0.00,40.00,0,-999,0,0.00
2013-6-16,81,73,63,-100,-100,-100,0,0,100,0.00,40.00,0,-999,0,0.00
2013-6-17,83,73,59,-100,-100,-100,0,0,100,0.00,40.00,0,-999,0,0.00
2013-6-18,81,71,62,-100,-100,-100,0,0,100,0.00,40.00,0,-999,0,0.00
2013-6-19,84,73,62,-100,-100,-100,0,0,100,0.00,40.00,0,-999,0,0.00
2013-6-20,85,73,65,-100,-100,-100,0,0,100,0.00,40.00,0,-999,0,0.00
2013-6-22,85,79,63,-100,-100,-100,0,0,100,0.00,40.00,0,-999,0,0.00
2013-6-23,80,70,62,-100,-100,-100,0,0,100,0.00,40.00,0,-999,0,0.00
2013-6-24,82,73,66,-100,-100,-100,0,0,100,0.00,40.00,0,-999,0,0.00
2013-6-25,84,77,69,-100,-100,-100,0,0,100,0.00,40.00,0,-999,0,0.00
2013-6-26,87,78,68,-100,-100,-100,0,0,100,0.00,40.00,0,-999,0,0.00
2013-6-27,81,71,67,-100,-100,-100,0,0,100,0.00,40.00,0,-999,0,0.00
2013-6-28,80,73,63,-100,-100,-100,0,0,100,0.00,40.00,0,-999,0,0.00
2013-6-29,76,70,59,-100,-100,-100,0,0,100,0.00,40.00,0,-999,0,0.00
2013-6-30,73,65,56,-100,-100,-100,0,0,100,0.00,40.00,0,-999,0,0.00
2013-7-1,78,67,52,-100,-100,-100,0,0,100,0.00,40.00,0,-999,0,0.00
2013-7-2,82,67,55,-100,-100,-100,0,0,100,0.00,40.00,0,-999,0,0.00
2013-7-3,82,71,58,-100,-100,-100,0,0,100,0.00,40.00,0,-999,0,0.00
2013-7-4,83,72,61,-100,-100,-100,0,0,100,0.00,40.00,0,-999,0,0.00
2013-7-5,83,75,66,-100,-100,-100,0,0,100,0.00,40.00,0,-999,0,0.00
2013-7-6,85,74,69,-100,-100,-100,0,0,100,0.00,40.00,0,-999,0,0.00
2013-7-7,87,79,69,-100,-100,-100,0,0,100,0.00,40.00,0,-999,0,0.00
2013-7-8,83,75,68,-100,-100,-100,0,0,100,0.00,40.00,0,-999,0,0.00
2013-7-9,87,79,70,-100,-100,-100,0,0,100,0.00,40.00,0,-999,0,0.00
2013-7-10,80,73,62,-100,-100,-100,0,0,100,0.00,40.00,0,-999,0,0.00
2013-7-11,83,72,62,-100,-100,-100,0,0,100,0.00,40.00,0,-999,0,0.00
2013-7-12,87,74,65,-100,-100,-100,0,0,100,0.00,40.00,0,-999,0,0.00
2013-7-13,91,79,70,-100,-100,-100,0,0,100,0.00,40.00,0,-999,0,0.00
2013-7-14,84,75,67,-100,-100,-100,0,0,100,0.00,40.00,0,-999,0,0.00
2013-7-15,83,72,59,-100,-100,-100,0,0,100,0.00,40.00,0,-999,0,0.00
2013-7-16,84,76,65,-100,-100,-100,0,0,100,0.00,40.00,0,-999,0,0.00
2013-7-17,87,78,65,-100,-100,-100,0,0,100,0.00,40.00,0,-999,0,0.00
2013-7-18,87,81,72,-100,-100,-100,0,0,100,0.00,40.00,0,-999,0,0.00
2013-7-19,89,79,70,-100,-100,-100,0,0,100,0.00,40.00,0,-999,0,0.00
2013-7-20,83,71,59,-100,-100,-100,0,0,100,0.00,40.00,0,-999,0,0.00
2013-7-21,85,72,63,-100,-100,-100,0,0,100,0.00,40.00,0,-999,0,0.00
2013-7-22,90,75,66,-100,-100,-100,0,0,100,0.00,40.00,0,-999,0,0.00
2013-7-23,76,67,62,-100,-100,-100,0,0,100,0.00,40.00,0,-999,0,0.00
2013-7-24,76,65,54,-100,-100,-100,0,0,100,0.00,40.00,0,-999,0,0.00
2013-7-25,80,71,66,-100,-100,-100,0,0,100,0.00,40.00,0,-999,0,0.00
2013-7-26,69,65,54,-100,-100,-100,0,0,100,0.00,40.00,0,-999,0,0.00
2013-7-27,69,59,49,-100,-100,-100,0,0,100,0.00,40.00,0,-999,0,0.00
2013-7-28,72,59,46,-100,-100,-100,0,0,100,0.00,40.00,0,-999,0,0.00
2013-7-29,64,60,55,-100,-100,-100,0,0,100,0.00,40.00,0,-999,0,0.00
2013-7-30,71,65,62,-100,-100,-100,0,0,100,0.00,40.00,0,-999,0,0.00
2013-7-31,81,70,58,-100,-100,-100,0,0,100,0.00,40.00,0,-999,0,0.00
2013-8-1,81,69,58,-100,-100,-100,0,0,100,0.00,40.00,0,-999,0,0.00
2013-8-2,77,68,62,-100,-100,-100,0,0,100,0.00,40.00,0,-999,0,0.00
2013-8-3,71,65,58,-100,-100,-100,0,0,100,0.00,40.00,0,-999,0,0.00
2013-8-4,74,65,56,-100,-100,-100,0,0,100,0.00,40.00,0,-999,0,0.00
2013-8-5,80,71,65,-100,-100,-100,0,0,100,0.00,40.00,0,-999,0,0.00
2013-8-6,83,73,63,-100,-100,-100,0,0,100,0.00,40.00,0,-999,0,0.00
2013-8-7,77,69,61,-100,-100,-100,0,0,100,0.00,40.00,0,-999,0,0.00
2013-8-8,74,66,61,-100,-100,-100,0,0,100,0.00,40.00,0,-999,0,0.00
2013-8-9,74,67,61,-100,-100,-100,0,0,100,0.00,40.00,0,-999,0,0.00
2013-8-10,80,68,54,-100,-100,-100,0,0,100,0.00,40.00,0,-999,0,0.00
2013-8-11,80,71,65,-100,-100,-100,0,0,100,0.00,40.00,0,-999,0,0.00
2013-8-12,75,69,63,-100,-100,-100,0,0,100,0.00,40.00,0,-999,0,0.00
2013-8-13,72,66,59,-100,-100,-100,0,0,100,0.00,40.00,0,-999,0,0.00
2013-8-14,69,62,52,-100,-100,-100,0,0,100,0.00,40.00,0,-999,0,0.00
2013-8-15,65,60,58,-100,-100,-100,0,0,100,0.00,40.00,0,-999,0,0.00
2013-8-16,69,63,58,-100,-100,-100,0,0,100,0.00,40.00,0,-999,0,0.00
2013-8-17,75,66,61,-100,-100,-100,0,0,100,0.00,40.00,0,-999,0,0.00
2013-8-18,77,66,53,-100,-100,-100,0,0,100,0.00,40.00,0,-999,0,0.00
2013-8-19,83,72,63,-100,-100,-100,0,0,100,0.00,40.00,0,-999,0,0.00
2013-8-20,85,75,69,-100,-100,-100,0,0,100,0.00,40.00,0,-999,0,0.00
2013-8-21,87,77,69,-100,-100,-100,0,0,100,0.00,40.00,0,-999,0,0.00
2013-8-22,80,72,65,-100,-100,-100,0,0,100,0.00,40.00,0,-999,0,0.00
2013-8-23,83,75,65,-100,-100,-100,0,0,100,0.00,40.00,0,-999,0,0.00
2013-8-24,88,78,71,-100,-100,-100,0,0,100,0.00,40.00,0,-999,0,0.00
2013-8-25,90,80,73,-100,-100,-100,0,0,100,0.00,40.00,0,-999,0,0.00
2013-8-26,91,81,73,-100,-100,-100,0,0,100,0.00,40.00,0,-999,0,0.00
2013-8-27,87,78,73,-100,-100,-100,0,0,100,0.00,40.00,0,-999,0,0.00
2013-8-28,90,84,75,-100,-100,-100,0,0,100,0.00,40.00,0,-999,0,0.00
2013-8-29,90,78,62,-100,-100,-100,0,0,100,0.00,40.00,0,-999,0,0.00
2013-8-30,87,76,66,-100,-100,-100,0,0,100,0.00,40.00,0,-999,0,0.00
2013-8-31,90,76,68,-100,-100,-100,0,0,100,0.00,40.00,0,-999,0,0.00
2013-9-1,78,72,61,-100,-100,-100,0,0,100,0.00,40.00,0,-999,0,0.00
2013-9-2,74,64,53,-100,-100,-100,0,0,100,0.00,40.00,0,-999,0,0.00
2013-9-3,84,68,51,-100,-100,-100,0,0,100,0.00,40.00,0,-999,0,0.00
2013-9-4,85,72,62,-100,-100,-100,0,0,100,0.00,40.00,0,-999,0,0.00
2013-9-5,84,73,65,-100,-100,-100,0,0,100,0.00,40.00,0,-999,0,0.00
2013-9-6,90,76,65,-100,-100,-100,0,0,100,0.00,40.00,0,-999,0,0.00
2013-9-7,80,74,68,-100,-100,-100,0,0,100,0.00,40.00,0,-999,0,0.00
2013-9-8,89,76,64,-100,-100,-100,0,0,100,0.00,40.00,0,-999,0,0.00
2013-9-9,92,80,73,-100,-100,-100,0,0,100,0.00,40.00,0,-999,0,0.00
2013-9-10,86,75,65,-100,-100,-100,0,0,100,0.00,40.00,0,-999,0,0.00
2013-9-11,80,71,63,-100,-100,-100,0,0,100,0.00,40.00,0,-999,0,0.00
2013-9-12,76,67,57,-100,-100,-100,0,0,100,0.00,40.00,0,-999,0,0.00
2013-9-13,73,61,46,-100,-100,-100,0,0,100,0.00,40.00,0,-999,0,0.00
2013-9-14,72,62,54,-100,-100,-100,0,0,100,0.00,40.00,0,-999,0,0.00
2013-9-15,66,63,55,-100,-100,-100,0,0,100,0.00,40.00,0,-999,0,0.00
2013-9-16,65,59,54,-100,-100,-100,0,0,100,0.00,40.00,0,-999,0,0.00
2013-9-17,69,61,54,-100,-100,-100,0,0,100,0.00,40.00,0,-999,0,0.00
2013-9-18,75,67,65,-100,-100,-100,0,0,100,0.00,40.00,0,-999,0,0.00
2013-9-19,77,67,54,-100,-100,-100,0,0,100,0.00,40.00,0,-999,0,0.00
2013-9-20,68,57,46,-100,-100,-100,0,0,100,0.00,40.00,0,-999,0,0.00
2013-9-21,76,56,40,-100,-100,-100,0,0,100,0.00,40.00,0,-999,0,0.00
2013-9-22,78,67,58,-100,-100,-100,0,0,100,0.00,40.00,0,-999,0,0.00
2013-9-23,75,63,51,-100,-100,-100,0,0,100,0.00,40.00,0,-999,0,0.00
2013-9-24,67,62,54,-100,-100,-100,0,0,100,0.00,40.00,0,-999,0,0.00
2013-9-25,76,62,48,-100,-100,-100,0,0,100,0.00,40.00,0,-999,0,0.00
2013-9-26,85,71,58,-100,-100,-100,0,0,100,0.00,40.00,0,-999,0,0.00
2013-9-27,83,74,65,-100,-100,-100,0,0,100,0.00,40.00,0,-999,0,0.00
2013-9-28,78,60,49,-100,-100,-100,0,0,100,0.00,40.00,0,-999,0,0.00
2013-9-29,74,59,45,-100,-100,-100,0,0,100,0.00,40.00,0,-999,0,0.00
2013-9-30,79,66,55,-100,-100,-100,0,0,100,0.00,40.00,0,-999,0,0.00
2013-10-1,74,67,57,-100,-100,-100,0,0,100,0.00,40.00,0,-999,0,0.00
2013-10-2,81,66,50,-100,-100,-100,0,0,100,0.00,40.00,0,-999,0,0.00
2013-10-3,72,63,57,-100,-100,-100,0,0,100,0.00,40.00,0,-999,0,0.00
2013-10-4,77,66,56,-100,-100,-100,0,0,100,0.00,40.00,0,-999,0,0.00
2013-10-5,46,41,37,-100,-100,-100,0,0,100,0.00,40.00,0,-999,0,0.00
2013-10-6,55,44,37,-100,-100,-100,0,0,100,0.00,40.00,0,-999,0,0.00
2013-10-7,72,53,38,-100,-100,-100,0,0,100,0.00,40.00,0,-999,0,0.00
2013-10-8,73,63,54,-100,-100,-100,0,0,100,0.00,40.00,0,-999,0,0.00
2013-10-9,76,62,49,-100,-100,-100,0,0,100,0.00,40.00,0,-999,0,0.00
2013-10-10,77,64,53,-100,-100,-100,0,0,100,0.00,40.00,0,-999,0,0.00
2013-10-11,73,60,48,-100,-100,-100,0,0,100,0.00,40.00,0,-999,0,0.00
2013-10-12,62,51,39,-100,-100,-100,0,0,100,0.00,40.00,0,-999,0,0.00
2013-10-13,66,49,35,-100,-100,-100,0,0,100,0.00,40.00,0,-999,0,0.00
2013-10-14,56,49,43,-100,-100,-100,0,0,100,0.00,40.00,0,-999,0,0.00
2013-10-15,56,44,40,-100,-100,-100,0,0,100,0.00,40.00,0,-999,0,0.00
2013-10-16,54,45,40,-100,-100,-100,0,0,100,0.00,40.00,0,-999,0,0.00
2013-10-17,51,41,34,-100,-100,-100,0,0,100,0.00,40.00,0,-999,0,0.00
2013-10-18,49,38,29,-100,-100,-100,0,0,100,0.00,40.00,0,-999,0,0.00
2013-10-19,58,42,32,-100,-100,-100,0,0,100,0.00,40.00,0,-999,0,0.00
2013-10-20,60,47,38,-100,-100,-100,0,0,100,0.00,40.00,0,-999,0,0.00
2013-10-21,50,38,28,-100,-100,-100,0,0,100,0.00,40.00,0,-999,0,0.00
2013-10-22,45,41,34,-100,-100,-100,0,0,100,0.00,40.00,0,-999,0,0.00
2013-10-23,46,36,29,-100,-100,-100,0,0,100,0.00,40.00,0,-999,0,0.00
2013-10-24,43,35,26,-100,-100,-100,0,0,100,0.00,40.00,0,-999,0,0.00
2013-10-25,57,41,25,-100,-100,-100,0,0,100,0.00,40.00,0,-999,0,0.00
2013-10-26,47,41,30,-100,-100,-100,0,0,100,0.00,40.00,0,-999,0,0.00
2013-10-27,70,46,25,-100,-100,-100,0,0,100,0.00,40.00,0,-999,0,0.00
2013-10-28,48,42,36,-100,-100,-100,0,0,100,0.00,40.00,0,-999,0,0.00
2013-10-29,47,42,39,-100,-100,-100,0,0,100,0.00,40.00,0,-999,0,0.00
2013-10-30,43,41,38,-100,-100,-100,0,0,100,0.00,40.00,0,-999,0,0.00
2013-10-31,54,40,31,-100,-100,-100,0,0,100,0.00,40.00,0,-999,0,0.00
2013-11-1,54,44,37,-100,-100,-100,0,0,100,0.00,40.00,0,-999,0,0.00
2013-11-2,56,41,30,-100,-100,-100,0,0,100,0.00,40.00,0,-999,0,0.00
2013-11-3,54,47,36,-100,-100,-100,0,0,100,0.00,40.00,0,-999,0,0.00
2013-11-4,47,44,40,-100,-100,-100,0,0,100,0.00,40.00,0,-999,0,0.00
2013-11-5,37,34,29,-100,-100,-100,0,0,100,0.00,40.00,0,-999,0,0.00
2013-11-6,39,33,30,-100,-100,-100,0,0,100,0.00,40.00,0,-999,0,0.00
2013-11-7,43,34,27,-100,-100,-100,0,0,100,0.00,40.00,0,-999,0,0.00
2013-11-8,56,45,34,-100,-100,-100,0,0,100,0.00,40.00,0,-999,0,0.00
2013-11-9,56,43,32,-100,-100,-100,0,0,100,0.00,40.00,0,-999,0,0.00
2013-11-10,50,40,32,-100,-100,-100,0,0,100,0.00,40.00,0,-999,0,0.00
2013-11-11,39,27,15,-100,-100,-100,0,0,100,0.00,40.00,0,-999,0,0.00
2013-11-12,33,20,8,-100,-100,-100,0,0,100,0.00,40.00,0,-999,0,0.00
2013-11-13,53,37,26,-100,-100,-100,0,0,100,0.00,40.00,0,-999,0,0.00
2013-11-14,56,41,31,-100,-100,-100,0,0,100,0.00,40.00,0,-999,0,0.00
2013-11-15,53,40,25,-100,-100,-100,0,0,100,0.00,40.00,0,-999,0,0.00
2013-11-16,58,46,33,-100,-100,-100,0,0,100,0.00,40.00,0,-999,0,0.00
2013-11-17,50,42,33,-100,-100,-100,0,0,100,0.00,40.00,0,-999,0,0.00
2013-11-18,54,37,26,-100,-100,-100,0,0,100,0.00,40.00,0,-999,0,0.00
2013-11-19,58,47,35,-100,-100,-100,0,0,100,0.00,40.00,0,-999,0,0.00
2013-11-20,57,46,32,-100,-100,-100,0,0,100,0.00,40.00,0,-999,0,0.00
2013-11-21,33,24,17,-100,-100,-100,0,0,100,0.00,40.00,0,-999,0,0.00
2013-11-22,30,19,10,-100,-100,-100,0,0,100,0.00,40.00,0,-999,0,0.00
2013-11-23,21,16,11,-100,-100,-100,0,0,100,0.00,40.00,0,-999,0,0.00
2013-11-24,33,22,12,-100,-100,-100,0,0,100,0.00,40.00,0,-999,0,0.00
2013-11-25,43,30,23,-100,-100,-100,0,0,100,0.00,40.00,0,-999,0,0.00
2013-11-26,28,21,10,-100,-100,-100,0,0,100,0.00,40.00,0,-999,0,0.00
2013-11-27,32,20,9,-100,-100,-100,0,0,100,0.00,40.00,0,-999,0,0.00
2013-11-28,29,24,13,-100,-100,-100,0,0,100,0.00,40.00,0,-999,0,0.00
2013-11-29,43,26,14,-100,-100,-100,0,0,100,0.00,40.00,0,-999,0,0.00
2013-11-30,55,36,24,-100,-100,-100,0,0,100,0.00,40.00,0,-999,0,0.00
2013-12-1,43,31,20,-100,-100,-100,0,0,100,0.00,40.00,0,-999,0,0.00
2013-12-2,61,42,29,-100,-100,-100,0,0,100,0.00,40.00,0,-999,0,0.00
2013-12-3,36,32,28,-100,-100,-100,0,0,100,0.00,40.00,0,-999,0,0.00
2013-12-4,29,18,13,-100,-100,-100,0,0,100,0.00,40.00,0,-999,0,0.00
2013-12-5,13,8,3,-100,-100,-100,0,0,100,0.00,40.00,0,-999,0,0.00
2013-12-6,8,2,-3,-100,-100,-100,0,0,100,0.00,40.00,0,-999,0,0.00
2013-12-7,8,2,-6,-100,-100,-100,0,0,100,0.00,40.00,0,-999,0,0.00
2013-12-8,15,11,3,-100,-100,-100,0,0,100,0.00,40.00,0,-999,0,0.00
2013-12-9,12,4,-3,-100,-100,-100,0,0,100,0.00,40.00,0,-999,0,0.00
2013-12-10,27,20,10,-100,-100,-100,0,0,100,0.00,40.00,0,-999,0,0.00
2013-12-11,25,10,1,-100,-100,-100,0,0,100,0.00,40.00,0,-999,0,0.00
2013-12-12,36,22,10,-100,-100,-100,0,0,100,0.00,40.00,0,-999,0,0.00
2013-12-13,30,20,10,-100,-100,-100,0,0,100,0.00,40.00,0,-999,0,0.00
2013-12-14,21,16,11,-100,-100,-100,0,0,100,0.00,40.00,0,-999,0,0.00
2013-12-15,25,18,14,-100,-100,-100,0,0,100,0.00,40.00,0,-999,0,0.00
2013-12-16,47,26,11,-100,-100,-100,0,0,100,0.00,40.00,0,-999,0,0.00
2013-12-17,39,30,23,-100,-100,-100,0,0,100,0.00,40.00,0,-999,0,0.00
2013-12-18,49,36,25,-100,-100,-100,0,0,100,0.00,40.00,0,-999,0,0.00
2013-12-19,29,23,13,-100,-100,-100,0,0,100,0.00,40.00,0,-999,0,0.00
2013-12-20,16,12,9,-100,-100,-100,0,0,100,0.00,40.00,0,-999,0,0.00
2013-12-21,21,17,12,-100,-100,-100,0,0,100,0.00,40.00,0,-999,0,0.00
2013-12-22,18,13,6,-100,-100,-100,0,0,100,0.00,40.00,0,-999,0,0.00
2013-12-23,10,4,-2,-100,-100,-100,0,0,100,0.00,40.00,0,-999,0,0.00
2013-12-24,24,13,3,-100,-100,-100,0,0,100,0.00,40.00,0,-999,0,0.00
2013-12-25,39,26,17,-100,-100,-100,0,0,100,0.00,40.00,0,-999,0,0.00
2013-12-26,48,30,21,-100,-100,-100,0,0,100,0.00,40.00,0,-999,0,0.00
2013-12-27,58,34,15,-100,-100,-100,0,0,100,0.00,40.00,0,-999,0,0.00
2013-12-28,56,33,15,-100,-100,-100,0,0,100,0.00,40.00,0,-999,0,0.00
2013-12-29,10,7,3,-100,-100,-100,0,0,100,0.00,40.00,0,-999,0,0.00
2013-12-30,34,16,4,-100,-100,-100,0,0,100,0.00,40.00,0,-999,0,0.00
2013-12-31,29,14,3,-100,-100,-100,0,0,100,0.00,40.00,0,-999,0,0.00
2014-1-1,10,6,3,-100,-100,-100,0,0,100,0.00,40.00,0,-999,0,0.00
2014-1-2,6,1,-3,-100,-100,-100,0,0,100,0.00,40.00,0,-999,0,0.00